الصفحة الرئيسية
METAR-TAF:

METAR-TAF

مطار :

مطار الخرطوم الدولي

الخرطوم, السودان

دائرة عرض: 15-36N, خط طول: 032-33E, ارتفاع: 382 متر

مراقبة الطقس الحالي

تاريخ ووقت الإصدار 35 دقيقة قبل الساعة 04:00UTC
ريح 14 عقدة من الشمال
درجة الحرارة 17°درجة مئوية
الرطوبة 32%
ضغط 1018 hPa
الرؤية 10 كم أو أكثر
الغيوم لا تقل 1500 م ولا وجود لمزنة ركامية السحاب الأسود

METAR: HSSS 100400Z 36014KT CAVOK 17/00 Q1018 NOSIG

زمن: 07:35 (04:35 UTC)

توقعات

تاريخ ووقت الإصدار 5ساعات و 35 دقيقة قبل الساعة 23:00UTC
التوقعات صالحة من10 الساعة 00 UTC إلى 11 الساعة 06 UTC
ريح 10 عقدة من الشمال/الشمال الغربي تتزايد حتى 20 عقدة
الرؤية 10 كم أو أكثر
الغيوم لا تقل 1500 م ولا وجود لمزنة ركامية السحاب الأسود
مؤقت
من 10 الساعة 04 UTC إلى 10 الساعة 08 UTC
الرؤية: 6000 متر

TAF: HSSS 092300Z 1000/1106 34010G20KT CAVOK TEMPO 1004/1008 6000

أرصاد الطقس والتوقعات من أكثر من 4000 مطار (تقارير الطقس للمطار METAR والتنبؤ بالطقس بالمطارTAF).

المحطات المتاحة هي النقط الصفراء والحمراء على الخريطة.

حرك المؤشر فوق النقطة لمعرفة اسم المحطة.

ثم انقر لمعرفة أرصاد وتوقعات الطقس.

لتغيير الخارطة: اضغط على الأزرار الخضراء مع رمز الصليب الأسود للتكبير. على الزر الأخضر مع شرطة للتصغير، أو على الأسهم الخضراء للخرائط المجاورة.


METAR-TAF: